sensor_id;sensor_type;location;lat;lon;timestamp;P1;durP1;ratioP1;P2;durP2;ratioP2
73642;SDS011;61938;48.652;9.292;2023-03-13T00:00:50;19.85;;;4.47;;
73642;SDS011;61938;48.652;9.292;2023-03-13T00:03:18;19.85;;;4.15;;
73642;SDS011;61938;48.652;9.292;2023-03-13T00:05:44;20.48;;;4.60;;
73642;SDS011;61938;48.652;9.292;2023-03-13T00:08:10;21.20;;;5.10;;
73642;SDS011;61938;48.652;9.292;2023-03-13T00:10:36;19.15;;;4.50;;
73642;SDS011;61938;48.652;9.292;2023-03-13T00:13:02;13.60;;;4.47;;
73642;SDS011;61938;48.652;9.292;2023-03-13T00:15:28;9.70;;;4.30;;
73642;SDS011;61938;48.652;9.292;2023-03-13T00:17:53;20.67;;;5.10;;
73642;SDS011;61938;48.652;9.292;2023-03-13T00:20:19;17.30;;;4.60;;
73642;SDS011;61938;48.652;9.292;2023-03-13T00:22:44;16.73;;;4.53;;
73642;SDS011;61938;48.652;9.292;2023-03-13T00:25:10;14.20;;;4.45;;
73642;SDS011;61938;48.652;9.292;2023-03-13T00:27:35;20.23;;;5.50;;
73642;SDS011;61938;48.652;9.292;2023-03-13T00:30:01;16.52;;;5.45;;
73642;SDS011;61938;48.652;9.292;2023-03-13T00:32:26;17.40;;;4.97;;
73642;SDS011;61938;48.652;9.292;2023-03-13T00:34:52;25.15;;;5.57;;
73642;SDS011;61938;48.652;9.292;2023-03-13T00:37:17;15.70;;;4.57;;
73642;SDS011;61938;48.652;9.292;2023-03-13T00:39:43;12.40;;;4.28;;
73642;SDS011;61938;48.652;9.292;2023-03-13T00:42:09;14.93;;;4.68;;
73642;SDS011;61938;48.652;9.292;2023-03-13T00:44:37;18.15;;;5.32;;
73642;SDS011;61938;48.652;9.292;2023-03-13T00:47:03;15.52;;;4.50;;
73642;SDS011;61938;48.652;9.292;2023-03-13T00:49:29;23.48;;;5.50;;
73642;SDS011;61938;48.652;9.292;2023-03-13T00:51:55;17.38;;;5.20;;
73642;SDS011;61938;48.652;9.292;2023-03-13T00:54:20;14.50;;;5.32;;
73642;SDS011;61938;48.652;9.292;2023-03-13T00:56:46;16.27;;;4.78;;
73642;SDS011;61938;48.652;9.292;2023-03-13T00:59:12;15.98;;;4.05;;
73642;SDS011;61938;48.652;9.292;2023-03-13T01:01:38;13.27;;;4.10;;
73642;SDS011;61938;48.652;9.292;2023-03-13T01:04:05;14.13;;;4.13;;
73642;SDS011;61938;48.652;9.292;2023-03-13T01:06:33;13.15;;;3.30;;
73642;SDS011;61938;48.652;9.292;2023-03-13T01:09:01;10.80;;;3.60;;
73642;SDS011;61938;48.652;9.292;2023-03-13T01:11:30;14.40;;;4.38;;
73642;SDS011;61938;48.652;9.292;2023-03-13T01:13:58;12.80;;;3.92;;
73642;SDS011;61938;48.652;9.292;2023-03-13T01:16:26;17.13;;;4.18;;
73642;SDS011;61938;48.652;9.292;2023-03-13T01:18:55;14.15;;;3.92;;
73642;SDS011;61938;48.652;9.292;2023-03-13T01:21:23;15.10;;;3.15;;
73642;SDS011;61938;48.652;9.292;2023-03-13T01:23:50;16.40;;;3.45;;
73642;SDS011;61938;48.652;9.292;2023-03-13T01:26:17;8.90;;;4.20;;
73642;SDS011;61938;48.652;9.292;2023-03-13T01:28:43;17.77;;;4.50;;
73642;SDS011;61938;48.652;9.292;2023-03-13T01:31:19;10.35;;;3.42;;
73642;SDS011;61938;48.652;9.292;2023-03-13T01:33:46;11.13;;;3.67;;
73642;SDS011;61938;48.652;9.292;2023-03-13T01:36:13;14.27;;;4.05;;
73642;SDS011;61938;48.652;9.292;2023-03-13T01:38:39;13.38;;;4.72;;
73642;SDS011;61938;48.652;9.292;2023-03-13T01:41:05;20.85;;;4.53;;
73642;SDS011;61938;48.652;9.292;2023-03-13T01:43:32;13.55;;;3.53;;
73642;SDS011;61938;48.652;9.292;2023-03-13T01:51:07;17.38;;;3.80;;
73642;SDS011;61938;48.652;9.292;2023-03-13T01:53:36;11.40;;;3.65;;
73642;SDS011;61938;48.652;9.292;2023-03-13T01:56:09;17.17;;;3.60;;
73642;SDS011;61938;48.652;9.292;2023-03-13T01:58:49;11.38;;;2.70;;
73642;SDS011;61938;48.652;9.292;2023-03-13T02:01:17;15.52;;;3.38;;
73642;SDS011;61938;48.652;9.292;2023-03-13T02:03:44;11.20;;;2.45;;
73642;SDS011;61938;48.652;9.292;2023-03-13T02:06:12;7.60;;;2.13;;
73642;SDS011;61938;48.652;9.292;2023-03-13T02:08:46;7.80;;;2.40;;
73642;SDS011;61938;48.652;9.292;2023-03-13T02:13:53;7.05;;;2.05;;
73642;SDS011;61938;48.652;9.292;2023-03-13T02:16:21;11.70;;;2.53;;
73642;SDS011;61938;48.652;9.292;2023-03-13T02:18:47;10.10;;;2.70;;
73642;SDS011;61938;48.652;9.292;2023-03-13T02:21:15;12.43;;;3.20;;
73642;SDS011;61938;48.652;9.292;2023-03-13T02:24:02;14.05;;;2.88;;
73642;SDS011;61938;48.652;9.292;2023-03-13T02:26:52;10.80;;;2.27;;
73642;SDS011;61938;48.652;9.292;2023-03-13T02:29:18;15.18;;;2.80;;
73642;SDS011;61938;48.652;9.292;2023-03-13T02:31:45;9.60;;;2.58;;
73642;SDS011;61938;48.652;9.292;2023-03-13T02:34:12;12.63;;;2.58;;
73642;SDS011;61938;48.652;9.292;2023-03-13T02:36:39;18.67;;;3.67;;
73642;SDS011;61938;48.652;9.292;2023-03-13T02:39:06;6.90;;;2.15;;
73642;SDS011;61938;48.652;9.292;2023-03-13T02:41:32;13.10;;;3.03;;
73642;SDS011;61938;48.652;9.292;2023-03-13T02:43:59;13.65;;;2.42;;
73642;SDS011;61938;48.652;9.292;2023-03-13T02:46:24;12.30;;;2.05;;
73642;SDS011;61938;48.652;9.292;2023-03-13T02:48:51;6.68;;;2.60;;
73642;SDS011;61938;48.652;9.292;2023-03-13T02:51:22;9.68;;;2.47;;
73642;SDS011;61938;48.652;9.292;2023-03-13T02:53:54;8.27;;;2.20;;
73642;SDS011;61938;48.652;9.292;2023-03-13T02:56:23;11.90;;;2.70;;
73642;SDS011;61938;48.652;9.292;2023-03-13T02:58:50;10.80;;;2.50;;
73642;SDS011;61938;48.652;9.292;2023-03-13T03:01:16;8.93;;;1.65;;
73642;SDS011;61938;48.652;9.292;2023-03-13T03:03:42;8.25;;;1.88;;
73642;SDS011;61938;48.652;9.292;2023-03-13T03:06:07;5.68;;;1.67;;
73642;SDS011;61938;48.652;9.292;2023-03-13T03:08:33;5.65;;;1.70;;
73642;SDS011;61938;48.652;9.292;2023-03-13T03:10:59;8.68;;;2.05;;
73642;SDS011;61938;48.652;9.292;2023-03-13T03:13:26;5.60;;;1.27;;
73642;SDS011;61938;48.652;9.292;2023-03-13T03:15:51;8.35;;;1.85;;
73642;SDS011;61938;48.652;9.292;2023-03-13T03:18:17;4.72;;;1.52;;
73642;SDS011;61938;48.652;9.292;2023-03-13T03:20:43;7.55;;;1.73;;
73642;SDS011;61938;48.652;9.292;2023-03-13T03:23:09;4.25;;;1.63;;
73642;SDS011;61938;48.652;9.292;2023-03-13T03:25:34;3.50;;;1.50;;
73642;SDS011;61938;48.652;9.292;2023-03-13T03:28:00;10.15;;;2.03;;
73642;SDS011;61938;48.652;9.292;2023-03-13T03:30:25;4.78;;;1.35;;
73642;SDS011;61938;48.652;9.292;2023-03-13T03:32:51;9.00;;;2.13;;
73642;SDS011;61938;48.652;9.292;2023-03-13T03:35:16;9.98;;;1.73;;
73642;SDS011;61938;48.652;9.292;2023-03-13T03:37:42;6.50;;;1.27;;
73642;SDS011;61938;48.652;9.292;2023-03-13T03:40:07;5.18;;;1.40;;
73642;SDS011;61938;48.652;9.292;2023-03-13T03:42:34;4.93;;;1.35;;
73642;SDS011;61938;48.652;9.292;2023-03-13T03:45:00;7.60;;;1.75;;
73642;SDS011;61938;48.652;9.292;2023-03-13T03:47:26;6.30;;;1.63;;
73642;SDS011;61938;48.652;9.292;2023-03-13T03:49:51;5.60;;;1.10;;
73642;SDS011;61938;48.652;9.292;2023-03-13T03:52:17;5.03;;;1.27;;
73642;SDS011;61938;48.652;9.292;2023-03-13T03:54:42;3.97;;;1.17;;
73642;SDS011;61938;48.652;9.292;2023-03-13T03:57:08;4.22;;;1.40;;
73642;SDS011;61938;48.652;9.292;2023-03-13T03:59:33;4.05;;;1.10;;
73642;SDS011;61938;48.652;9.292;2023-03-13T04:01:59;4.03;;;1.20;;
73642;SDS011;61938;48.652;9.292;2023-03-13T04:04:24;3.92;;;1.00;;
73642;SDS011;61938;48.652;9.292;2023-03-13T04:06:50;4.10;;;1.30;;
73642;SDS011;61938;48.652;9.292;2023-03-13T04:09:16;5.88;;;1.30;;
73642;SDS011;61938;48.652;9.292;2023-03-13T04:11:41;4.50;;;1.48;;
73642;SDS011;61938;48.652;9.292;2023-03-13T04:14:07;6.88;;;0.95;;
73642;SDS011;61938;48.652;9.292;2023-03-13T04:16:33;5.00;;;1.55;;
73642;SDS011;61938;48.652;9.292;2023-03-13T04:18:58;6.65;;;2.10;;
73642;SDS011;61938;48.652;9.292;2023-03-13T04:21:24;2.80;;;1.20;;
73642;SDS011;61938;48.652;9.292;2023-03-13T04:23:49;4.30;;;1.08;;
73642;SDS011;61938;48.652;9.292;2023-03-13T04:26:15;2.40;;;1.00;;
73642;SDS011;61938;48.652;9.292;2023-03-13T04:28:40;6.22;;;1.20;;
73642;SDS011;61938;48.652;9.292;2023-03-13T04:31:06;4.68;;;1.30;;
73642;SDS011;61938;48.652;9.292;2023-03-13T04:33:31;4.65;;;1.10;;
73642;SDS011;61938;48.652;9.292;2023-03-13T04:35:57;3.92;;;1.20;;
73642;SDS011;61938;48.652;9.292;2023-03-13T04:38:23;5.47;;;1.70;;
73642;SDS011;61938;48.652;9.292;2023-03-13T04:40:48;7.63;;;1.58;;
73642;SDS011;61938;48.652;9.292;2023-03-13T04:43:14;3.92;;;1.30;;
73642;SDS011;61938;48.652;9.292;2023-03-13T04:45:39;4.78;;;1.25;;
73642;SDS011;61938;48.652;9.292;2023-03-13T04:48:05;6.75;;;1.20;;
73642;SDS011;61938;48.652;9.292;2023-03-13T04:50:31;5.97;;;1.38;;
73642;SDS011;61938;48.652;9.292;2023-03-13T04:52:56;1.77;;;1.02;;
73642;SDS011;61938;48.652;9.292;2023-03-13T04:55:21;3.97;;;1.45;;
73642;SDS011;61938;48.652;9.292;2023-03-13T04:57:47;3.08;;;1.08;;
73642;SDS011;61938;48.652;9.292;2023-03-13T05:00:13;4.25;;;1.40;;
73642;SDS011;61938;48.652;9.292;2023-03-13T05:02:39;7.47;;;1.92;;
73642;SDS011;61938;48.652;9.292;2023-03-13T05:05:04;4.95;;;1.27;;
73642;SDS011;61938;48.652;9.292;2023-03-13T05:07:30;2.88;;;1.10;;
73642;SDS011;61938;48.652;9.292;2023-03-13T05:09:55;4.50;;;1.42;;
73642;SDS011;61938;48.652;9.292;2023-03-13T05:12:21;3.50;;;0.98;;
73642;SDS011;61938;48.652;9.292;2023-03-13T05:14:46;2.65;;;0.88;;
73642;SDS011;61938;48.652;9.292;2023-03-13T05:17:14;4.63;;;0.88;;
73642;SDS011;61938;48.652;9.292;2023-03-13T05:19:41;4.55;;;1.25;;
73642;SDS011;61938;48.652;9.292;2023-03-13T05:22:07;5.20;;;1.00;;
73642;SDS011;61938;48.652;9.292;2023-03-13T05:24:32;4.40;;;0.90;;
73642;SDS011;61938;48.652;9.292;2023-03-13T05:26:58;6.38;;;1.20;;
73642;SDS011;61938;48.652;9.292;2023-03-13T05:29:23;2.75;;;0.90;;
73642;SDS011;61938;48.652;9.292;2023-03-13T05:31:49;4.97;;;1.30;;
73642;SDS011;61938;48.652;9.292;2023-03-13T05:34:15;6.45;;;1.10;;
73642;SDS011;61938;48.652;9.292;2023-03-13T05:36:40;3.90;;;1.10;;
73642;SDS011;61938;48.652;9.292;2023-03-13T05:39:06;6.75;;;1.10;;
73642;SDS011;61938;48.652;9.292;2023-03-13T05:41:31;4.60;;;1.20;;
73642;SDS011;61938;48.652;9.292;2023-03-13T05:43:57;6.22;;;1.35;;
73642;SDS011;61938;48.652;9.292;2023-03-13T05:46:22;2.58;;;1.00;;
73642;SDS011;61938;48.652;9.292;2023-03-13T05:48:48;4.35;;;1.02;;
73642;SDS011;61938;48.652;9.292;2023-03-13T05:51:13;2.72;;;0.88;;
73642;SDS011;61938;48.652;9.292;2023-03-13T05:53:39;7.78;;;1.13;;
73642;SDS011;61938;48.652;9.292;2023-03-13T05:56:05;3.65;;;1.00;;
73642;SDS011;61938;48.652;9.292;2023-03-13T05:58:31;5.80;;;1.23;;
73642;SDS011;61938;48.652;9.292;2023-03-13T06:00:56;1.88;;;0.88;;
73642;SDS011;61938;48.652;9.292;2023-03-13T06:03:22;3.55;;;1.00;;
73642;SDS011;61938;48.652;9.292;2023-03-13T06:05:47;2.65;;;1.25;;
73642;SDS011;61938;48.652;9.292;2023-03-13T06:08:13;2.80;;;0.90;;
73642;SDS011;61938;48.652;9.292;2023-03-13T06:10:38;3.55;;;1.00;;
73642;SDS011;61938;48.652;9.292;2023-03-13T06:13:04;3.45;;;0.88;;
73642;SDS011;61938;48.652;9.292;2023-03-13T06:15:29;1.88;;;1.02;;
73642;SDS011;61938;48.652;9.292;2023-03-13T06:17:55;4.50;;;1.20;;
73642;SDS011;61938;48.652;9.292;2023-03-13T06:20:21;2.45;;;1.00;;
73642;SDS011;61938;48.652;9.292;2023-03-13T06:22:46;2.75;;;0.90;;
73642;SDS011;61938;48.652;9.292;2023-03-13T06:25:12;5.30;;;0.95;;
73642;SDS011;61938;48.652;9.292;2023-03-13T06:27:38;2.53;;;1.00;;
73642;SDS011;61938;48.652;9.292;2023-03-13T06:30:05;1.98;;;1.08;;
73642;SDS011;61938;48.652;9.292;2023-03-13T06:32:30;2.90;;;0.90;;
73642;SDS011;61938;48.652;9.292;2023-03-13T06:34:56;1.55;;;0.60;;
73642;SDS011;61938;48.652;9.292;2023-03-13T06:37:21;4.13;;;1.30;;
73642;SDS011;61938;48.652;9.292;2023-03-13T06:39:47;4.03;;;0.90;;
73642;SDS011;61938;48.652;9.292;2023-03-13T06:42:12;8.90;;;0.95;;
73642;SDS011;61938;48.652;9.292;2023-03-13T06:44:38;4.57;;;0.80;;
73642;SDS011;61938;48.652;9.292;2023-03-13T06:47:05;2.30;;;0.80;;
73642;SDS011;61938;48.652;9.292;2023-03-13T06:49:31;2.97;;;1.33;;
73642;SDS011;61938;48.652;9.292;2023-03-13T06:51:57;6.53;;;0.70;;
73642;SDS011;61938;48.652;9.292;2023-03-13T06:54:22;1.52;;;0.60;;
73642;SDS011;61938;48.652;9.292;2023-03-13T06:56:48;2.67;;;0.85;;
73642;SDS011;61938;48.652;9.292;2023-03-13T06:59:14;0.93;;;0.60;;
73642;SDS011;61938;48.652;9.292;2023-03-13T07:01:39;2.95;;;1.10;;
73642;SDS011;61938;48.652;9.292;2023-03-13T07:04:05;1.80;;;0.90;;
73642;SDS011;61938;48.652;9.292;2023-03-13T07:06:31;7.63;;;0.70;;
73642;SDS011;61938;48.652;9.292;2023-03-13T07:08:56;4.13;;;0.70;;
73642;SDS011;61938;48.652;9.292;2023-03-13T07:11:22;2.00;;;0.75;;
73642;SDS011;61938;48.652;9.292;2023-03-13T07:13:47;1.80;;;0.82;;
73642;SDS011;61938;48.652;9.292;2023-03-13T07:16:13;1.00;;;0.60;;
73642;SDS011;61938;48.652;9.292;2023-03-13T07:18:38;1.42;;;0.57;;
73642;SDS011;61938;48.652;9.292;2023-03-13T07:21:08;2.63;;;0.68;;
73642;SDS011;61938;48.652;9.292;2023-03-13T07:23:34;3.22;;;0.60;;
73642;SDS011;61938;48.652;9.292;2023-03-13T07:26:01;7.90;;;0.85;;
73642;SDS011;61938;48.652;9.292;2023-03-13T07:28:30;1.65;;;0.60;;
73642;SDS011;61938;48.652;9.292;2023-03-13T07:31:02;2.20;;;0.63;;
73642;SDS011;61938;48.652;9.292;2023-03-13T07:36:13;1.55;;;0.70;;
73642;SDS011;61938;48.652;9.292;2023-03-13T07:38:39;1.08;;;0.55;;
73642;SDS011;61938;48.652;9.292;2023-03-13T07:41:06;1.38;;;0.60;;
73642;SDS011;61938;48.652;9.292;2023-03-13T07:43:32;2.08;;;0.60;;
73642;SDS011;61938;48.652;9.292;2023-03-13T07:45:58;1.58;;;0.55;;
73642;SDS011;61938;48.652;9.292;2023-03-13T07:48:32;6.47;;;0.95;;
73642;SDS011;61938;48.652;9.292;2023-03-13T07:50:59;1.85;;;0.70;;
73642;SDS011;61938;48.652;9.292;2023-03-13T07:53:26;1.50;;;0.60;;
73642;SDS011;61938;48.652;9.292;2023-03-13T07:56:02;1.00;;;0.60;;
73642;SDS011;61938;48.652;9.292;2023-03-13T07:58:31;5.05;;;0.90;;
73642;SDS011;61938;48.652;9.292;2023-03-13T08:00:58;5.75;;;0.80;;
73642;SDS011;61938;48.652;9.292;2023-03-13T08:03:25;2.67;;;0.90;;
73642;SDS011;61938;48.652;9.292;2023-03-13T08:06:01;4.93;;;0.80;;
73642;SDS011;61938;48.652;9.292;2023-03-13T08:08:28;8.15;;;0.75;;
73642;SDS011;61938;48.652;9.292;2023-03-13T08:11:07;3.35;;;0.70;;
73642;SDS011;61938;48.652;9.292;2023-03-13T08:13:35;1.55;;;0.63;;
73642;SDS011;61938;48.652;9.292;2023-03-13T08:16:08;3.53;;;0.80;;
73642;SDS011;61938;48.652;9.292;2023-03-13T08:18:34;1.58;;;0.70;;
73642;SDS011;61938;48.652;9.292;2023-03-13T08:21:06;4.90;;;0.90;;
73642;SDS011;61938;48.652;9.292;2023-03-13T08:23:33;4.57;;;1.38;;
73642;SDS011;61938;48.652;9.292;2023-03-13T08:26:00;1.88;;;0.85;;
73642;SDS011;61938;48.652;9.292;2023-03-13T08:28:33;2.35;;;0.80;;
73642;SDS011;61938;48.652;9.292;2023-03-13T08:31:16;1.33;;;0.80;;
73642;SDS011;61938;48.652;9.292;2023-03-13T08:33:50;4.22;;;0.90;;
73642;SDS011;61938;48.652;9.292;2023-03-13T08:36:17;1.33;;;0.70;;
73642;SDS011;61938;48.652;9.292;2023-03-13T08:38:44;1.75;;;0.80;;
73642;SDS011;61938;48.652;9.292;2023-03-13T08:41:12;1.63;;;0.55;;
73642;SDS011;61938;48.652;9.292;2023-03-13T08:43:38;1.85;;;0.80;;
73642;SDS011;61938;48.652;9.292;2023-03-13T08:46:04;5.28;;;1.02;;
73642;SDS011;61938;48.652;9.292;2023-03-13T08:48:29;3.63;;;0.80;;
73642;SDS011;61938;48.652;9.292;2023-03-13T08:51:08;4.05;;;0.70;;
73642;SDS011;61938;48.652;9.292;2023-03-13T08:53:37;5.47;;;0.70;;
73642;SDS011;61938;48.652;9.292;2023-03-13T08:56:03;1.33;;;0.85;;
73642;SDS011;61938;48.652;9.292;2023-03-13T08:58:29;0.90;;;0.52;;
73642;SDS011;61938;48.652;9.292;2023-03-13T09:01:02;1.92;;;1.30;;
73642;SDS011;61938;48.652;9.292;2023-03-13T09:03:35;1.73;;;1.00;;
73642;SDS011;61938;48.652;9.292;2023-03-13T09:06:01;5.95;;;0.90;;
73642;SDS011;61938;48.652;9.292;2023-03-13T09:08:27;3.60;;;0.68;;
73642;SDS011;61938;48.652;9.292;2023-03-13T09:10:54;5.70;;;0.82;;
73642;SDS011;61938;48.652;9.292;2023-03-13T09:13:21;3.50;;;0.80;;
73642;SDS011;61938;48.652;9.292;2023-03-13T09:16:07;0.90;;;0.60;;
73642;SDS011;61938;48.652;9.292;2023-03-13T09:18:34;2.25;;;1.00;;
73642;SDS011;61938;48.652;9.292;2023-03-13T09:21:00;4.22;;;0.90;;
73642;SDS011;61938;48.652;9.292;2023-03-13T09:23:26;2.17;;;0.60;;
73642;SDS011;61938;48.652;9.292;2023-03-13T09:25:52;1.67;;;0.57;;
73642;SDS011;61938;48.652;9.292;2023-03-13T09:28:19;1.65;;;0.60;;
73642;SDS011;61938;48.652;9.292;2023-03-13T09:30:45;1.05;;;0.73;;
73642;SDS011;61938;48.652;9.292;2023-03-13T09:33:13;2.20;;;0.88;;
73642;SDS011;61938;48.652;9.292;2023-03-13T09:35:38;1.23;;;0.73;;
73642;SDS011;61938;48.652;9.292;2023-03-13T09:38:04;3.20;;;0.90;;
73642;SDS011;61938;48.652;9.292;2023-03-13T09:40:30;3.00;;;0.82;;
73642;SDS011;61938;48.652;9.292;2023-03-13T09:43:04;4.30;;;1.08;;
73642;SDS011;61938;48.652;9.292;2023-03-13T09:45:30;2.72;;;0.80;;
73642;SDS011;61938;48.652;9.292;2023-03-13T09:48:01;3.13;;;0.70;;
73642;SDS011;61938;48.652;9.292;2023-03-13T09:50:39;3.05;;;1.02;;
73642;SDS011;61938;48.652;9.292;2023-03-13T09:53:15;1.15;;;0.70;;
73642;SDS011;61938;48.652;9.292;2023-03-13T09:55:44;1.80;;;1.08;;
73642;SDS011;61938;48.652;9.292;2023-03-13T09:58:20;2.30;;;1.13;;
73642;SDS011;61938;48.652;9.292;2023-03-13T10:01:07;2.17;;;1.20;;
73642;SDS011;61938;48.652;9.292;2023-03-13T10:06:37;3.72;;;0.90;;
73642;SDS011;61938;48.652;9.292;2023-03-13T10:14:38;6.43;;;1.10;;
73642;SDS011;61938;48.652;9.292;2023-03-13T10:17:09;2.25;;;1.40;;
73642;SDS011;61938;48.652;9.292;2023-03-13T10:20:13;2.20;;;1.45;;
73642;SDS011;61938;48.652;9.292;2023-03-13T10:22:58;7.78;;;1.20;;
73642;SDS011;61938;48.652;9.292;2023-03-13T10:25:34;2.63;;;1.08;;
73642;SDS011;61938;48.652;9.292;2023-03-13T10:28:02;1.95;;;1.17;;
73642;SDS011;61938;48.652;9.292;2023-03-13T10:30:35;3.13;;;1.88;;
73642;SDS011;61938;48.652;9.292;2023-03-13T10:38:03;4.00;;;1.15;;
73642;SDS011;61938;48.652;9.292;2023-03-13T10:40:37;4.90;;;1.42;;
73642;SDS011;61938;48.652;9.292;2023-03-13T10:43:04;4.20;;;1.40;;
73642;SDS011;61938;48.652;9.292;2023-03-13T10:45:38;3.33;;;1.33;;
73642;SDS011;61938;48.652;9.292;2023-03-13T10:48:11;4.47;;;1.70;;
73642;SDS011;61938;48.652;9.292;2023-03-13T10:50:40;4.20;;;1.40;;
73642;SDS011;61938;48.652;9.292;2023-03-13T10:56:12;9.57;;;1.30;;
73642;SDS011;61938;48.652;9.292;2023-03-13T10:58:40;2.78;;;1.55;;
73642;SDS011;61938;48.652;9.292;2023-03-13T11:03:43;7.47;;;1.50;;
73642;SDS011;61938;48.652;9.292;2023-03-13T11:06:26;4.63;;;1.45;;
73642;SDS011;61938;48.652;9.292;2023-03-13T11:14:19;5.10;;;1.38;;
73642;SDS011;61938;48.652;9.292;2023-03-13T11:16:47;4.60;;;1.70;;
73642;SDS011;61938;48.652;9.292;2023-03-13T11:30:19;2.85;;;1.58;;
73642;SDS011;61938;48.652;9.292;2023-03-13T11:33:11;3.83;;;1.38;;
73642;SDS011;61938;48.652;9.292;2023-03-13T11:35:57;3.63;;;1.65;;
73642;SDS011;61938;48.652;9.292;2023-03-13T11:38:35;4.43;;;1.50;;
73642;SDS011;61938;48.652;9.292;2023-03-13T11:41:17;4.07;;;1.23;;
73642;SDS011;61938;48.652;9.292;2023-03-13T11:44:23;4.90;;;1.13;;
73642;SDS011;61938;48.652;9.292;2023-03-13T11:46:58;2.88;;;1.20;;
73642;SDS011;61938;48.652;9.292;2023-03-13T11:55:40;2.53;;;1.23;;
73642;SDS011;61938;48.652;9.292;2023-03-13T11:58:40;3.88;;;1.58;;
73642;SDS011;61938;48.652;9.292;2023-03-13T12:01:21;3.95;;;1.08;;
73642;SDS011;61938;48.652;9.292;2023-03-13T12:04:10;2.35;;;1.25;;
73642;SDS011;61938;48.652;9.292;2023-03-13T12:06:43;7.97;;;1.33;;
73642;SDS011;61938;48.652;9.292;2023-03-13T12:14:46;3.22;;;1.40;;
73642;SDS011;61938;48.652;9.292;2023-03-13T12:17:22;3.30;;;1.20;;
73642;SDS011;61938;48.652;9.292;2023-03-13T12:22:44;1.85;;;1.10;;
73642;SDS011;61938;48.652;9.292;2023-03-13T12:25:20;5.20;;;2.33;;
73642;SDS011;61938;48.652;9.292;2023-03-13T12:27:54;2.00;;;1.20;;
73642;SDS011;61938;48.652;9.292;2023-03-13T12:30:41;3.08;;;1.15;;
73642;SDS011;61938;48.652;9.292;2023-03-13T12:35:46;6.32;;;1.88;;
73642;SDS011;61938;48.652;9.292;2023-03-13T12:38:35;6.63;;;1.40;;
73642;SDS011;61938;48.652;9.292;2023-03-13T12:41:27;6.63;;;1.65;;
73642;SDS011;61938;48.652;9.292;2023-03-13T12:43:58;3.15;;;1.30;;
73642;SDS011;61938;48.652;9.292;2023-03-13T12:46:34;3.35;;;1.27;;
73642;SDS011;61938;48.652;9.292;2023-03-13T12:54:54;4.10;;;1.35;;
73642;SDS011;61938;48.652;9.292;2023-03-13T13:00:17;6.43;;;1.48;;
73642;SDS011;61938;48.652;9.292;2023-03-13T13:03:00;3.55;;;1.60;;
73642;SDS011;61938;48.652;9.292;2023-03-13T13:05:29;4.05;;;1.50;;
73642;SDS011;61938;48.652;9.292;2023-03-13T13:07:55;2.35;;;1.30;;
73642;SDS011;61938;48.652;9.292;2023-03-13T13:10:25;6.47;;;1.50;;
73642;SDS011;61938;48.652;9.292;2023-03-13T13:15:45;8.35;;;1.92;;
73642;SDS011;61938;48.652;9.292;2023-03-13T13:18:27;4.07;;;1.67;;
73642;SDS011;61938;48.652;9.292;2023-03-13T13:28:53;6.53;;;1.30;;
73642;SDS011;61938;48.652;9.292;2023-03-13T13:34:08;6.22;;;1.30;;
73642;SDS011;61938;48.652;9.292;2023-03-13T13:39:34;6.45;;;1.52;;
73642;SDS011;61938;48.652;9.292;2023-03-13T13:42:28;6.93;;;1.20;;
73642;SDS011;61938;48.652;9.292;2023-03-13T13:44:58;3.97;;;1.20;;
73642;SDS011;61938;48.652;9.292;2023-03-13T13:47:27;2.83;;;1.23;;
73642;SDS011;61938;48.652;9.292;2023-03-13T13:49:57;2.75;;;1.17;;
73642;SDS011;61938;48.652;9.292;2023-03-13T13:55:14;3.90;;;1.40;;
73642;SDS011;61938;48.652;9.292;2023-03-13T13:58:04;3.70;;;1.33;;
73642;SDS011;61938;48.652;9.292;2023-03-13T14:00:44;4.60;;;1.38;;
73642;SDS011;61938;48.652;9.292;2023-03-13T14:03:19;3.53;;;1.30;;
73642;SDS011;61938;48.652;9.292;2023-03-13T14:05:49;5.72;;;1.52;;
73642;SDS011;61938;48.652;9.292;2023-03-13T14:08:36;12.77;;;1.40;;
73642;SDS011;61938;48.652;9.292;2023-03-13T14:11:24;5.30;;;1.50;;
73642;SDS011;61938;48.652;9.292;2023-03-13T14:14:17;3.22;;;1.42;;
73642;SDS011;61938;48.652;9.292;2023-03-13T14:16:46;4.28;;;1.50;;
73642;SDS011;61938;48.652;9.292;2023-03-13T14:19:23;2.67;;;1.30;;
73642;SDS011;61938;48.652;9.292;2023-03-13T14:22:03;3.30;;;1.87;;
73642;SDS011;61938;48.652;9.292;2023-03-13T14:24:30;6.05;;;1.65;;
73642;SDS011;61938;48.652;9.292;2023-03-13T14:26:56;4.38;;;1.38;;
73642;SDS011;61938;48.652;9.292;2023-03-13T14:29:22;7.40;;;1.20;;
73642;SDS011;61938;48.652;9.292;2023-03-13T14:31:54;9.02;;;1.10;;
73642;SDS011;61938;48.652;9.292;2023-03-13T14:34:22;3.08;;;1.42;;
73642;SDS011;61938;48.652;9.292;2023-03-13T14:39:19;2.28;;;1.38;;
73642;SDS011;61938;48.652;9.292;2023-03-13T14:44:28;2.55;;;1.30;;
73642;SDS011;61938;48.652;9.292;2023-03-13T14:46:56;6.25;;;1.40;;
73642;SDS011;61938;48.652;9.292;2023-03-13T14:49:24;2.17;;;1.02;;
73642;SDS011;61938;48.652;9.292;2023-03-13T14:52:06;2.08;;;1.10;;
73642;SDS011;61938;48.652;9.292;2023-03-13T14:54:56;7.85;;;1.30;;
73642;SDS011;61938;48.652;9.292;2023-03-13T14:57:28;2.08;;;0.75;;
73642;SDS011;61938;48.652;9.292;2023-03-13T14:59:58;5.03;;;1.30;;
73642;SDS011;61938;48.652;9.292;2023-03-13T15:05:42;2.13;;;1.33;;
73642;SDS011;61938;48.652;9.292;2023-03-13T15:08:12;5.68;;;1.30;;
73642;SDS011;61938;48.652;9.292;2023-03-13T15:10:39;5.90;;;1.15;;
73642;SDS011;61938;48.652;9.292;2023-03-13T15:13:16;6.10;;;1.20;;
73642;SDS011;61938;48.652;9.292;2023-03-13T15:15:55;2.78;;;1.20;;
73642;SDS011;61938;48.652;9.292;2023-03-13T15:18:21;6.40;;;1.30;;
73642;SDS011;61938;48.652;9.292;2023-03-13T15:20:56;5.18;;;1.27;;
73642;SDS011;61938;48.652;9.292;2023-03-13T15:23:34;4.82;;;1.30;;
73642;SDS011;61938;48.652;9.292;2023-03-13T15:25:59;2.17;;;1.10;;
73642;SDS011;61938;48.652;9.292;2023-03-13T15:28:25;4.55;;;1.10;;
73642;SDS011;61938;48.652;9.292;2023-03-13T15:30:50;6.78;;;1.42;;
73642;SDS011;61938;48.652;9.292;2023-03-13T15:33:21;5.82;;;1.60;;
73642;SDS011;61938;48.652;9.292;2023-03-13T15:35:49;5.85;;;1.35;;
73642;SDS011;61938;48.652;9.292;2023-03-13T15:38:19;2.35;;;1.35;;
73642;SDS011;61938;48.652;9.292;2023-03-13T15:40:46;4.55;;;1.65;;
73642;SDS011;61938;48.652;9.292;2023-03-13T15:43:13;2.25;;;1.27;;
73642;SDS011;61938;48.652;9.292;2023-03-13T15:45:40;4.57;;;1.35;;
73642;SDS011;61938;48.652;9.292;2023-03-13T15:48:14;5.00;;;1.30;;
73642;SDS011;61938;48.652;9.292;2023-03-13T15:50:53;13.25;;;3.05;;
73642;SDS011;61938;48.652;9.292;2023-03-13T15:53:21;9.75;;;1.50;;
73642;SDS011;61938;48.652;9.292;2023-03-13T15:55:53;7.32;;;1.35;;
73642;SDS011;61938;48.652;9.292;2023-03-13T15:58:20;6.15;;;1.17;;
73642;SDS011;61938;48.652;9.292;2023-03-13T16:00:46;2.05;;;1.05;;
73642;SDS011;61938;48.652;9.292;2023-03-13T16:03:19;2.67;;;1.13;;
73642;SDS011;61938;48.652;9.292;2023-03-13T16:05:48;1.67;;;0.80;;
73642;SDS011;61938;48.652;9.292;2023-03-13T16:08:18;2.92;;;1.13;;
73642;SDS011;61938;48.652;9.292;2023-03-13T16:10:46;3.15;;;0.80;;
73642;SDS011;61938;48.652;9.292;2023-03-13T16:13:12;3.60;;;1.33;;
73642;SDS011;61938;48.652;9.292;2023-03-13T16:15:37;2.30;;;0.80;;
73642;SDS011;61938;48.652;9.292;2023-03-13T16:18:03;3.45;;;0.90;;
73642;SDS011;61938;48.652;9.292;2023-03-13T16:20:30;4.55;;;0.90;;
73642;SDS011;61938;48.652;9.292;2023-03-13T16:22:57;2.75;;;1.02;;
73642;SDS011;61938;48.652;9.292;2023-03-13T16:25:23;1.98;;;0.80;;
73642;SDS011;61938;48.652;9.292;2023-03-13T16:27:49;5.72;;;1.25;;
73642;SDS011;61938;48.652;9.292;2023-03-13T16:30:21;3.42;;;0.65;;
73642;SDS011;61938;48.652;9.292;2023-03-13T16:32:49;2.28;;;0.80;;
73642;SDS011;61938;48.652;9.292;2023-03-13T16:35:14;2.10;;;0.85;;
73642;SDS011;61938;48.652;9.292;2023-03-13T16:37:40;3.05;;;1.45;;